sensor_id;sensor_type;location;lat;lon;timestamp;pressure;altitude;pressure_sealevel;temperature;humidity
70370;BME280;57790;51.356;-2.906;2023-08-06T00:01:50;101705.00;;;16.48;100.00
70370;BME280;57790;51.356;-2.906;2023-08-06T00:04:50;101710.06;;;16.43;100.00
70370;BME280;57790;51.356;-2.906;2023-08-06T00:07:51;101718.63;;;16.38;100.00
70370;BME280;57790;51.356;-2.906;2023-08-06T00:10:51;101715.09;;;16.38;100.00
70370;BME280;57790;51.356;-2.906;2023-08-06T00:13:52;101714.59;;;16.34;100.00
70370;BME280;57790;51.356;-2.906;2023-08-06T00:16:52;101720.50;;;16.29;100.00
70370;BME280;57790;51.356;-2.906;2023-08-06T00:19:53;101723.66;;;16.33;100.00
70370;BME280;57790;51.356;-2.906;2023-08-06T00:22:53;101731.19;;;16.29;100.00
70370;BME280;57790;51.356;-2.906;2023-08-06T00:25:53;101729.72;;;16.27;100.00
70370;BME280;57790;51.356;-2.906;2023-08-06T00:28:54;101730.44;;;16.21;100.00
70370;BME280;57790;51.356;-2.906;2023-08-06T00:31:54;101736.59;;;16.21;100.00
70370;BME280;57790;51.356;-2.906;2023-08-06T00:34:55;101731.41;;;16.20;100.00
70370;BME280;57790;51.356;-2.906;2023-08-06T00:37:55;101736.94;;;16.18;100.00
70370;BME280;57790;51.356;-2.906;2023-08-06T00:40:55;101736.28;;;16.16;100.00
70370;BME280;57790;51.356;-2.906;2023-08-06T00:43:56;101734.97;;;16.12;100.00
70370;BME280;57790;51.356;-2.906;2023-08-06T00:46:56;101733.31;;;16.11;100.00
70370;BME280;57790;51.356;-2.906;2023-08-06T00:49:57;101739.34;;;16.05;100.00
70370;BME280;57790;51.356;-2.906;2023-08-06T00:52:58;101734.16;;;16.03;100.00
70370;BME280;57790;51.356;-2.906;2023-08-06T00:55:59;101735.16;;;16.02;100.00
70370;BME280;57790;51.356;-2.906;2023-08-06T00:59:00;101732.00;;;15.99;100.00
70370;BME280;57790;51.356;-2.906;2023-08-06T01:02:01;101730.03;;;15.93;100.00
70370;BME280;57790;51.356;-2.906;2023-08-06T01:05:01;101735.22;;;15.94;100.00
70370;BME280;57790;51.356;-2.906;2023-08-06T01:14:45;101737.38;;;15.91;100.00
70370;BME280;57790;51.356;-2.906;2023-08-06T01:17:48;101752.78;;;15.89;100.00
70370;BME280;57790;51.356;-2.906;2023-08-06T01:20:48;101747.41;;;15.89;100.00
70370;BME280;57790;51.356;-2.906;2023-08-06T01:23:50;101756.63;;;15.86;100.00
70370;BME280;57790;51.356;-2.906;2023-08-06T01:27:44;101764.66;;;15.86;100.00
70370;BME280;57790;51.356;-2.906;2023-08-06T01:30:28;101754.66;;;15.80;100.00
70370;BME280;57790;51.356;-2.906;2023-08-06T01:33:32;101762.03;;;15.78;100.00
70370;BME280;57790;51.356;-2.906;2023-08-06T01:36:33;101755.84;;;15.77;100.00
70370;BME280;57790;51.356;-2.906;2023-08-06T01:39:34;101767.50;;;15.76;100.00
70370;BME280;57790;51.356;-2.906;2023-08-06T01:42:34;101761.69;;;15.73;100.00
70370;BME280;57790;51.356;-2.906;2023-08-06T01:45:35;101765.53;;;15.70;100.00
70370;BME280;57790;51.356;-2.906;2023-08-06T01:48:35;101764.69;;;15.70;100.00
70370;BME280;57790;51.356;-2.906;2023-08-06T01:51:36;101768.91;;;15.64;100.00
70370;BME280;57790;51.356;-2.906;2023-08-06T01:54:36;101768.25;;;15.62;100.00
70370;BME280;57790;51.356;-2.906;2023-08-06T01:57:36;101769.91;;;15.63;100.00
70370;BME280;57790;51.356;-2.906;2023-08-06T02:00:37;101773.72;;;15.61;100.00
70370;BME280;57790;51.356;-2.906;2023-08-06T02:03:37;101776.41;;;15.61;100.00
70370;BME280;57790;51.356;-2.906;2023-08-06T02:06:38;101778.72;;;15.56;100.00
70370;BME280;57790;51.356;-2.906;2023-08-06T02:09:38;101785.59;;;15.50;100.00
70370;BME280;57790;51.356;-2.906;2023-08-06T02:12:38;101788.94;;;15.52;100.00
70370;BME280;57790;51.356;-2.906;2023-08-06T02:15:45;101792.25;;;15.54;100.00
70370;BME280;57790;51.356;-2.906;2023-08-06T02:18:49;101791.59;;;15.52;100.00
70370;BME280;57790;51.356;-2.906;2023-08-06T02:21:49;101789.28;;;15.49;100.00
70370;BME280;57790;51.356;-2.906;2023-08-06T02:24:50;101790.28;;;15.48;100.00
70370;BME280;57790;51.356;-2.906;2023-08-06T02:27:50;101796.09;;;15.43;100.00
70370;BME280;57790;51.356;-2.906;2023-08-06T02:30:51;101793.25;;;15.45;100.00
70370;BME280;57790;51.356;-2.906;2023-08-06T02:33:51;101794.44;;;15.42;100.00
70370;BME280;57790;51.356;-2.906;2023-08-06T02:36:54;101795.63;;;15.40;100.00
70370;BME280;57790;51.356;-2.906;2023-08-06T02:39:54;101794.97;;;15.38;100.00
70370;BME280;57790;51.356;-2.906;2023-08-06T02:42:54;101799.28;;;15.39;100.00
70370;BME280;57790;51.356;-2.906;2023-08-06T02:45:58;101794.47;;;15.34;100.00
70370;BME280;57790;51.356;-2.906;2023-08-06T02:48:59;101801.66;;;15.34;100.00
70370;BME280;57790;51.356;-2.906;2023-08-06T02:51:59;101793.94;;;15.31;100.00
70370;BME280;57790;51.356;-2.906;2023-08-06T02:54:59;101801.78;;;15.32;100.00
70370;BME280;57790;51.356;-2.906;2023-08-06T02:58:01;101796.63;;;15.31;100.00
70370;BME280;57790;51.356;-2.906;2023-08-06T03:01:06;101794.28;;;15.28;100.00
70370;BME280;57790;51.356;-2.906;2023-08-06T03:04:07;101802.13;;;15.29;100.00
70370;BME280;57790;51.356;-2.906;2023-08-06T03:07:07;101806.81;;;15.27;100.00
70370;BME280;57790;51.356;-2.906;2023-08-06T03:10:08;101800.97;;;15.24;100.00
70370;BME280;57790;51.356;-2.906;2023-08-06T03:13:09;101801.13;;;15.22;100.00
70370;BME280;57790;51.356;-2.906;2023-08-06T03:16:09;101804.66;;;15.23;100.00
70370;BME280;57790;51.356;-2.906;2023-08-06T03:19:09;101803.81;;;15.22;100.00
70370;BME280;57790;51.356;-2.906;2023-08-06T03:22:10;101807.66;;;15.20;100.00
70370;BME280;57790;51.356;-2.906;2023-08-06T03:25:10;101816.81;;;15.17;100.00
70370;BME280;57790;51.356;-2.906;2023-08-06T03:28:10;101804.63;;;15.14;100.00
70370;BME280;57790;51.356;-2.906;2023-08-06T03:31:11;101805.63;;;15.13;100.00
70370;BME280;57790;51.356;-2.906;2023-08-06T03:34:11;101800.63;;;15.10;100.00
70370;BME280;57790;51.356;-2.906;2023-08-06T03:37:11;101812.97;;;15.11;100.00
70370;BME280;57790;51.356;-2.906;2023-08-06T03:40:12;101800.97;;;15.07;100.00
70370;BME280;57790;51.356;-2.906;2023-08-06T03:43:12;101808.31;;;15.05;100.00
70370;BME280;57790;51.356;-2.906;2023-08-06T03:46:13;101798.94;;;15.01;100.00
70370;BME280;57790;51.356;-2.906;2023-08-06T03:49:13;101796.09;;;15.03;100.00
70370;BME280;57790;51.356;-2.906;2023-08-06T03:52:13;101804.09;;;15.03;100.00
70370;BME280;57790;51.356;-2.906;2023-08-06T03:55:14;101806.28;;;14.99;100.00
70370;BME280;57790;51.356;-2.906;2023-08-06T03:58:14;101806.44;;;14.98;100.00
70370;BME280;57790;51.356;-2.906;2023-08-06T04:01:15;101807.63;;;14.95;100.00
70370;BME280;57790;51.356;-2.906;2023-08-06T04:04:15;101813.63;;;14.97;100.00
70370;BME280;57790;51.356;-2.906;2023-08-06T04:07:24;101808.47;;;14.96;100.00
70370;BME280;57790;51.356;-2.906;2023-08-06T04:10:28;101817.97;;;14.90;100.00
70370;BME280;57790;51.356;-2.906;2023-08-06T04:13:31;101827.13;;;14.87;100.00
70370;BME280;57790;51.356;-2.906;2023-08-06T04:16:31;101819.09;;;14.87;100.00
70370;BME280;57790;51.356;-2.906;2023-08-06T04:19:32;101819.44;;;14.84;100.00
70370;BME280;57790;51.356;-2.906;2023-08-06T04:22:32;101824.78;;;14.84;100.00
70370;BME280;57790;51.356;-2.906;2023-08-06T04:25:33;101827.78;;;14.81;100.00
70370;BME280;57790;51.356;-2.906;2023-08-06T04:28:33;101824.94;;;14.83;100.00
70370;BME280;57790;51.356;-2.906;2023-08-06T04:31:33;101820.94;;;14.79;100.00
70370;BME280;57790;51.356;-2.906;2023-08-06T04:34:35;101828.94;;;14.79;100.00
70370;BME280;57790;51.356;-2.906;2023-08-06T04:37:36;101834.47;;;14.77;100.00
70370;BME280;57790;51.356;-2.906;2023-08-06T04:40:36;101830.97;;;14.77;100.00
70370;BME280;57790;51.356;-2.906;2023-08-06T04:43:36;101832.78;;;14.76;100.00
70370;BME280;57790;51.356;-2.906;2023-08-06T04:46:37;101834.47;;;14.77;100.00
70370;BME280;57790;51.356;-2.906;2023-08-06T04:49:37;101846.63;;;14.80;100.00
70370;BME280;57790;51.356;-2.906;2023-08-06T04:52:38;101841.47;;;14.78;100.00
70370;BME280;57790;51.356;-2.906;2023-08-06T04:55:38;101853.16;;;14.77;100.00
70370;BME280;57790;51.356;-2.906;2023-08-06T04:58:38;101857.13;;;14.73;100.00
70370;BME280;57790;51.356;-2.906;2023-08-06T05:01:39;101860.13;;;14.70;100.00
70370;BME280;57790;51.356;-2.906;2023-08-06T05:04:39;101863.28;;;14.74;100.00
70370;BME280;57790;51.356;-2.906;2023-08-06T05:07:40;101860.44;;;14.75;100.00
70370;BME280;57790;51.356;-2.906;2023-08-06T05:10:42;101869.47;;;14.74;100.00
70370;BME280;57790;51.356;-2.906;2023-08-06T05:13:43;101877.34;;;14.76;100.00
70370;BME280;57790;51.356;-2.906;2023-08-06T05:16:43;101878.16;;;14.76;100.00
70370;BME280;57790;51.356;-2.906;2023-08-06T05:19:43;101880.69;;;14.78;100.00
70370;BME280;57790;51.356;-2.906;2023-08-06T05:22:44;101888.34;;;14.81;100.00
70370;BME280;57790;51.356;-2.906;2023-08-06T05:25:44;101885.34;;;14.84;100.00
70370;BME280;57790;51.356;-2.906;2023-08-06T05:28:45;101892.53;;;14.83;100.00
70370;BME280;57790;51.356;-2.906;2023-08-06T05:31:46;101888.69;;;14.86;100.00
70370;BME280;57790;51.356;-2.906;2023-08-06T05:34:46;101885.69;;;14.89;100.00
70370;BME280;57790;51.356;-2.906;2023-08-06T05:37:46;101886.41;;;14.91;100.00
70370;BME280;57790;51.356;-2.906;2023-08-06T05:40:47;101889.56;;;14.95;100.00
70370;BME280;57790;51.356;-2.906;2023-08-06T05:43:48;101878.88;;;14.95;100.00
70370;BME280;57790;51.356;-2.906;2023-08-06T05:46:48;101875.38;;;14.94;100.00
70370;BME280;57790;51.356;-2.906;2023-08-06T05:49:49;101894.56;;;14.98;100.00
70370;BME280;57790;51.356;-2.906;2023-08-06T05:52:49;101892.75;;;14.98;100.00
70370;BME280;57790;51.356;-2.906;2023-08-06T05:55:50;101898.41;;;14.95;100.00
70370;BME280;57790;51.356;-2.906;2023-08-06T05:58:51;101916.09;;;14.96;100.00
70370;BME280;57790;51.356;-2.906;2023-08-06T06:01:53;101920.28;;;14.99;100.00
70370;BME280;57790;51.356;-2.906;2023-08-06T06:04:53;101922.94;;;14.99;100.00
70370;BME280;57790;51.356;-2.906;2023-08-06T06:07:54;101928.78;;;15.02;100.00
70370;BME280;57790;51.356;-2.906;2023-08-06T06:10:54;101933.13;;;15.03;100.00
70370;BME280;57790;51.356;-2.906;2023-08-06T06:13:54;101939.19;;;15.05;100.00
70370;BME280;57790;51.356;-2.906;2023-08-06T06:16:55;101949.03;;;15.05;100.00
70370;BME280;57790;51.356;-2.906;2023-08-06T06:19:55;101943.53;;;15.06;100.00
70370;BME280;57790;51.356;-2.906;2023-08-06T06:22:56;101942.69;;;15.06;100.00
70370;BME280;57790;51.356;-2.906;2023-08-06T06:25:56;101938.19;;;15.06;100.00
70370;BME280;57790;51.356;-2.906;2023-08-06T06:28:57;101943.19;;;15.09;100.00
70370;BME280;57790;51.356;-2.906;2023-08-06T06:31:57;101944.03;;;15.10;100.00
70370;BME280;57790;51.356;-2.906;2023-08-06T06:34:59;101947.53;;;15.10;100.00
70370;BME280;57790;51.356;-2.906;2023-08-06T06:38:00;101947.03;;;15.15;100.00
70370;BME280;57790;51.356;-2.906;2023-08-06T06:41:00;101950.91;;;15.21;100.00
70370;BME280;57790;51.356;-2.906;2023-08-06T06:44:02;101949.91;;;15.22;100.00
70370;BME280;57790;51.356;-2.906;2023-08-06T06:47:03;101955.91;;;15.24;100.00
70370;BME280;57790;51.356;-2.906;2023-08-06T06:50:03;101952.59;;;15.30;100.00
70370;BME280;57790;51.356;-2.906;2023-08-06T06:53:04;101954.09;;;15.32;100.00
70370;BME280;57790;51.356;-2.906;2023-08-06T06:56:05;101956.28;;;15.37;100.00
70370;BME280;57790;51.356;-2.906;2023-08-06T06:59:05;101955.97;;;15.40;100.00
70370;BME280;57790;51.356;-2.906;2023-08-06T07:02:06;101956.13;;;15.46;100.00
70370;BME280;57790;51.356;-2.906;2023-08-06T07:05:06;101964.66;;;15.50;100.00
70370;BME280;57790;51.356;-2.906;2023-08-06T07:08:07;101961.31;;;15.56;100.00
70370;BME280;57790;51.356;-2.906;2023-08-06T07:11:08;101961.56;;;15.63;100.00
70370;BME280;57790;51.356;-2.906;2023-08-06T07:14:08;101966.22;;;15.69;100.00
70370;BME280;57790;51.356;-2.906;2023-08-06T07:17:08;101966.38;;;15.75;100.00
70370;BME280;57790;51.356;-2.906;2023-08-06T07:20:09;101970.25;;;15.81;100.00
70370;BME280;57790;51.356;-2.906;2023-08-06T07:23:10;101966.22;;;15.85;100.00
70370;BME280;57790;51.356;-2.906;2023-08-06T07:26:10;101968.72;;;15.87;100.00
70370;BME280;57790;51.356;-2.906;2023-08-06T07:29:10;101969.41;;;15.89;100.00
70370;BME280;57790;51.356;-2.906;2023-08-06T07:32:11;101963.56;;;15.93;100.00
70370;BME280;57790;51.356;-2.906;2023-08-06T07:35:11;101961.56;;;15.95;100.00
70370;BME280;57790;51.356;-2.906;2023-08-06T07:38:12;101968.75;;;15.95;100.00
70370;BME280;57790;51.356;-2.906;2023-08-06T07:41:13;101968.09;;;15.93;100.00
70370;BME280;57790;51.356;-2.906;2023-08-06T07:44:13;101968.75;;;15.95;100.00
70370;BME280;57790;51.356;-2.906;2023-08-06T07:47:14;101976.78;;;15.95;100.00
70370;BME280;57790;51.356;-2.906;2023-08-06T07:50:14;101972.59;;;15.92;100.00
70370;BME280;57790;51.356;-2.906;2023-08-06T07:53:14;101981.78;;;15.98;100.00
70370;BME280;57790;51.356;-2.906;2023-08-06T07:56:15;101980.94;;;15.97;100.00
70370;BME280;57790;51.356;-2.906;2023-08-06T07:59:15;101974.59;;;16.06;100.00
70370;BME280;57790;51.356;-2.906;2023-08-06T08:02:15;101979.94;;;16.06;100.00
70370;BME280;57790;51.356;-2.906;2023-08-06T08:05:16;101971.09;;;16.06;100.00
70370;BME280;57790;51.356;-2.906;2023-08-06T08:08:16;101968.41;;;16.06;100.00
70370;BME280;57790;51.356;-2.906;2023-08-06T08:11:17;101974.25;;;16.10;100.00
70370;BME280;57790;51.356;-2.906;2023-08-06T08:14:18;101982.59;;;16.15;100.00
70370;BME280;57790;51.356;-2.906;2023-08-06T08:17:19;101975.41;;;16.15;100.00
70370;BME280;57790;51.356;-2.906;2023-08-06T08:20:21;101970.56;;;16.19;100.00
70370;BME280;57790;51.356;-2.906;2023-08-06T08:23:21;101974.91;;;16.20;100.00
70370;BME280;57790;51.356;-2.906;2023-08-06T08:26:21;101969.72;;;16.26;100.00
70370;BME280;57790;51.356;-2.906;2023-08-06T08:29:22;101969.19;;;16.31;100.00
70370;BME280;57790;51.356;-2.906;2023-08-06T08:32:23;101972.88;;;16.38;100.00
70370;BME280;57790;51.356;-2.906;2023-08-06T08:35:24;101977.91;;;16.41;100.00
70370;BME280;57790;51.356;-2.906;2023-08-06T08:38:24;101975.34;;;16.48;100.00
70370;BME280;57790;51.356;-2.906;2023-08-06T08:41:27;101977.38;;;16.54;100.00
70370;BME280;57790;51.356;-2.906;2023-08-06T08:44:28;101981.00;;;16.61;100.00
70370;BME280;57790;51.356;-2.906;2023-08-06T08:47:32;101976.19;;;16.64;100.00
70370;BME280;57790;51.356;-2.906;2023-08-06T08:50:33;101975.34;;;16.72;100.00
70370;BME280;57790;51.356;-2.906;2023-08-06T08:53:35;101973.13;;;16.76;100.00
70370;BME280;57790;51.356;-2.906;2023-08-06T08:56:38;101972.28;;;16.83;100.00
70370;BME280;57790;51.356;-2.906;2023-08-06T08:59:38;101979.63;;;16.89;100.00
70370;BME280;57790;51.356;-2.906;2023-08-06T09:02:40;101985.97;;;16.97;100.00
70370;BME280;57790;51.356;-2.906;2023-08-06T09:05:44;101982.59;;;17.03;100.00
70370;BME280;57790;51.356;-2.906;2023-08-06T09:08:59;101988.94;;;17.10;100.00
70370;BME280;57790;51.356;-2.906;2023-08-06T09:12:11;101988.03;;;17.17;100.00
70370;BME280;57790;51.356;-2.906;2023-08-06T09:15:12;101988.19;;;17.24;100.00
70370;BME280;57790;51.356;-2.906;2023-08-06T09:18:13;101995.53;;;17.30;100.00
70370;BME280;57790;51.356;-2.906;2023-08-06T09:21:15;101992.31;;;17.35;100.00
70370;BME280;57790;51.356;-2.906;2023-08-06T09:24:16;101996.78;;;17.42;100.00
70370;BME280;57790;51.356;-2.906;2023-08-06T09:27:17;101991.22;;;17.52;100.00
70370;BME280;57790;51.356;-2.906;2023-08-06T09:30:35;102000.38;;;17.58;100.00
70370;BME280;57790;51.356;-2.906;2023-08-06T09:33:36;101993.47;;;17.63;100.00
70370;BME280;57790;51.356;-2.906;2023-08-06T09:36:48;101993.63;;;17.70;100.00
70370;BME280;57790;51.356;-2.906;2023-08-06T09:39:48;101990.03;;;17.77;100.00
70370;BME280;57790;51.356;-2.906;2023-08-06T09:42:49;101994.34;;;17.87;100.00
70370;BME280;57790;51.356;-2.906;2023-08-06T09:45:51;101997.50;;;17.90;100.00
70370;BME280;57790;51.356;-2.906;2023-08-06T09:48:51;102000.50;;;17.95;100.00
70370;BME280;57790;51.356;-2.906;2023-08-06T09:51:52;102000.59;;;18.02;100.00
70370;BME280;57790;51.356;-2.906;2023-08-06T09:54:55;102002.41;;;18.09;100.00
70370;BME280;57790;51.356;-2.906;2023-08-06T09:57:58;102002.69;;;18.14;100.00
70370;BME280;57790;51.356;-2.906;2023-08-06T10:01:00;101993.88;;;18.21;100.00
70370;BME280;57790;51.356;-2.906;2023-08-06T10:04:05;101986.78;;;18.28;100.00
70370;BME280;57790;51.356;-2.906;2023-08-06T10:07:08;101993.06;;;18.35;100.00
70370;BME280;57790;51.356;-2.906;2023-08-06T10:10:09;101987.00;;;18.41;100.00
70370;BME280;57790;51.356;-2.906;2023-08-06T10:13:10;101994.94;;;18.49;100.00
70370;BME280;57790;51.356;-2.906;2023-08-06T10:16:11;101988.88;;;18.55;100.00
70370;BME280;57790;51.356;-2.906;2023-08-06T10:19:12;102003.22;;;18.62;100.00
70370;BME280;57790;51.356;-2.906;2023-08-06T10:22:15;102007.06;;;18.68;100.00
70370;BME280;57790;51.356;-2.906;2023-08-06T10:25:17;102012.13;;;18.78;100.00
70370;BME280;57790;51.356;-2.906;2023-08-06T10:28:18;102011.13;;;18.79;100.00
70370;BME280;57790;51.356;-2.906;2023-08-06T10:31:19;102014.09;;;18.84;100.00
70370;BME280;57790;51.356;-2.906;2023-08-06T10:34:20;102017.69;;;18.91;100.00
70370;BME280;57790;51.356;-2.906;2023-08-06T10:37:20;102026.59;;;18.91;100.00
70370;BME280;57790;51.356;-2.906;2023-08-06T10:40:21;102016.50;;;18.93;100.00
70370;BME280;57790;51.356;-2.906;2023-08-06T10:43:35;102020.69;;;18.96;100.00
70370;BME280;57790;51.356;-2.906;2023-08-06T10:46:38;102031.06;;;18.99;100.00
70370;BME280;57790;51.356;-2.906;2023-08-06T10:49:38;102022.63;;;19.02;100.00
70370;BME280;57790;51.356;-2.906;2023-08-06T10:52:39;102022.63;;;19.02;100.00
70370;BME280;57790;51.356;-2.906;2023-08-06T10:55:40;102017.63;;;18.99;100.00
70370;BME280;57790;51.356;-2.906;2023-08-06T10:58:41;102012.13;;;19.07;100.00
70370;BME280;57790;51.356;-2.906;2023-08-06T11:01:42;102016.13;;;19.11;100.00
70370;BME280;57790;51.356;-2.906;2023-08-06T11:04:42;102023.44;;;19.17;100.00
70370;BME280;57790;51.356;-2.906;2023-08-06T11:07:43;102012.28;;;19.20;100.00
70370;BME280;57790;51.356;-2.906;2023-08-06T11:10:43;102020.81;;;19.24;100.00
70370;BME280;57790;51.356;-2.906;2023-08-06T11:13:45;102027.69;;;19.26;100.00
70370;BME280;57790;51.356;-2.906;2023-08-06T11:16:46;102023.97;;;19.27;100.00
70370;BME280;57790;51.356;-2.906;2023-08-06T11:19:47;102025.25;;;19.31;100.00
70370;BME280;57790;51.356;-2.906;2023-08-06T11:22:47;102030.44;;;19.33;100.00
70370;BME280;57790;51.356;-2.906;2023-08-06T11:25:48;102028.59;;;19.33;100.00
70370;BME280;57790;51.356;-2.906;2023-08-06T11:28:49;102026.94;;;19.32;100.00
70370;BME280;57790;51.356;-2.906;2023-08-06T11:31:49;102029.44;;;19.34;100.00
70370;BME280;57790;51.356;-2.906;2023-08-06T11:34:50;102023.22;;;19.33;100.00
70370;BME280;57790;51.356;-2.906;2023-08-06T11:37:51;102029.44;;;19.34;100.00
70370;BME280;57790;51.356;-2.906;2023-08-06T11:40:51;102025.91;;;19.33;100.00
70370;BME280;57790;51.356;-2.906;2023-08-06T11:43:52;102026.75;;;19.34;100.00
70370;BME280;57790;51.356;-2.906;2023-08-06T11:46:53;102014.13;;;19.35;100.00
70370;BME280;57790;51.356;-2.906;2023-08-06T11:49:56;102014.75;;;19.37;100.00
70370;BME280;57790;51.356;-2.906;2023-08-06T11:52:57;102010.06;;;19.39;100.00
70370;BME280;57790;51.356;-2.906;2023-08-06T11:55:58;102015.88;;;19.42;100.00
70370;BME280;57790;51.356;-2.906;2023-08-06T11:58:59;102014.09;;;19.49;100.00
70370;BME280;57790;51.356;-2.906;2023-08-06T12:02:05;102007.50;;;19.52;100.00
70370;BME280;57790;51.356;-2.906;2023-08-06T12:05:13;102021.69;;;19.60;100.00
70370;BME280;57790;51.356;-2.906;2023-08-06T12:08:14;102001.84;;;19.61;100.00
70370;BME280;57790;51.356;-2.906;2023-08-06T12:11:14;102014.47;;;19.61;100.00
70370;BME280;57790;51.356;-2.906;2023-08-06T12:14:15;102017.78;;;19.63;100.00
70370;BME280;57790;51.356;-2.906;2023-08-06T12:17:15;102007.03;;;19.63;100.00
70370;BME280;57790;51.356;-2.906;2023-08-06T12:20:16;102009.53;;;19.65;100.00
70370;BME280;57790;51.356;-2.906;2023-08-06T12:23:16;102024.84;;;19.64;100.00
70370;BME280;57790;51.356;-2.906;2023-08-06T12:26:17;102021.13;;;19.65;100.00
70370;BME280;57790;51.356;-2.906;2023-08-06T12:29:17;102024.44;;;19.67;100.00
70370;BME280;57790;51.356;-2.906;2023-08-06T12:32:17;102020.38;;;19.71;100.00
70370;BME280;57790;51.356;-2.906;2023-08-06T12:35:19;102009.22;;;19.74;100.00
70370;BME280;57790;51.356;-2.906;2023-08-06T12:38:21;102008.63;;;19.79;100.00
70370;BME280;57790;51.356;-2.906;2023-08-06T12:41:21;102010.78;;;19.83;100.00
70370;BME280;57790;51.356;-2.906;2023-08-06T12:44:22;102009.16;;;19.89;100.00
70370;BME280;57790;51.356;-2.906;2023-08-06T12:47:22;102008.56;;;19.94;100.00
70370;BME280;57790;51.356;-2.906;2023-08-06T12:50:22;101998.44;;;19.96;100.00
70370;BME280;57790;51.356;-2.906;2023-08-06T12:53:23;102005.13;;;20.00;100.00
70370;BME280;57790;51.356;-2.906;2023-08-06T12:56:23;102001.41;;;20.01;100.00
70370;BME280;57790;51.356;-2.906;2023-08-06T12:59:24;102001.00;;;20.04;100.00
70370;BME280;57790;51.356;-2.906;2023-08-06T13:02:24;101996.25;;;20.06;100.00
70370;BME280;57790;51.356;-2.906;2023-08-06T13:05:26;101998.75;;;20.07;100.00
70370;BME280;57790;51.356;-2.906;2023-08-06T13:08:26;101998.56;;;20.09;100.00
70370;BME280;57790;51.356;-2.906;2023-08-06T13:11:27;102000.88;;;20.12;100.00
70370;BME280;57790;51.356;-2.906;2023-08-06T13:14:27;102011.06;;;20.16;100.00
70370;BME280;57790;51.356;-2.906;2023-08-06T13:17:28;102006.31;;;20.18;100.00
70370;BME280;57790;51.356;-2.906;2023-08-06T13:20:30;102008.81;;;20.20;100.00
70370;BME280;57790;51.356;-2.906;2023-08-06T13:23:31;102000.34;;;20.23;100.00
70370;BME280;57790;51.356;-2.906;2023-08-06T13:26:31;102012.13;;;20.22;100.00
70370;BME280;57790;51.356;-2.906;2023-08-06T13:29:32;102019.19;;;20.23;100.00
70370;BME280;57790;51.356;-2.906;2023-08-06T13:32:32;102015.47;;;20.24;100.00
70370;BME280;57790;51.356;-2.906;2023-08-06T13:35:34;102013.59;;;20.25;100.00
70370;BME280;57790;51.356;-2.906;2023-08-06T13:38:34;102021.50;;;20.26;100.00
70370;BME280;57790;51.356;-2.906;2023-08-06T13:41:37;102016.97;;;20.27;100.00
70370;BME280;57790;51.356;-2.906;2023-08-06T13:44:37;102019.66;;;20.27;100.00
70370;BME280;57790;51.356;-2.906;2023-08-06T13:47:38;102020.09;;;20.30;100.00
70370;BME280;57790;51.356;-2.906;2023-08-06T13:50:38;102019.88;;;20.32;100.00
70370;BME280;57790;51.356;-2.906;2023-08-06T13:53:39;102012.03;;;20.37;100.00
70370;BME280;57790;51.356;-2.906;2023-08-06T13:56:39;102022.63;;;20.38;100.00
70370;BME280;57790;51.356;-2.906;2023-08-06T13:59:40;102022.63;;;20.38;100.00
70370;BME280;57790;51.356;-2.906;2023-08-06T14:02:41;102033.06;;;20.41;100.00
70370;BME280;57790;51.356;-2.906;2023-08-06T14:05:44;102026.97;;;20.39;100.00
70370;BME280;57790;51.356;-2.906;2023-08-06T14:08:44;102025.81;;;20.42;100.00
70370;BME280;57790;51.356;-2.906;2023-08-06T14:11:45;102018.34;;;20.44;100.00
70370;BME280;57790;51.356;-2.906;2023-08-06T14:14:45;102026.44;;;20.44;100.00
70370;BME280;57790;51.356;-2.906;2023-08-06T14:17:45;102026.25;;;20.45;100.00
70370;BME280;57790;51.356;-2.906;2023-08-06T14:20:46;102032.47;;;20.46;100.00
70370;BME280;57790;51.356;-2.906;2023-08-06T14:23:46;102031.44;;;20.47;100.00
70370;BME280;57790;51.356;-2.906;2023-08-06T14:26:47;102022.31;;;20.48;100.00
70370;BME280;57790;51.356;-2.906;2023-08-06T14:29:47;102026.28;;;20.52;100.00
70370;BME280;57790;51.356;-2.906;2023-08-06T14:32:48;102034.22;;;20.60;100.00
70370;BME280;57790;51.356;-2.906;2023-08-06T14:35:48;102030.28;;;20.63;100.00
70370;BME280;57790;51.356;-2.906;2023-08-06T14:38:49;102031.19;;;20.70;100.00
70370;BME280;57790;51.356;-2.906;2023-08-06T14:41:49;102034.53;;;20.72;100.00
70370;BME280;57790;51.356;-2.906;2023-08-06T14:44:50;102030.38;;;20.76;100.00
70370;BME280;57790;51.356;-2.906;2023-08-06T14:47:51;102037.03;;;20.80;100.00
70370;BME280;57790;51.356;-2.906;2023-08-06T14:50:51;102044.91;;;20.82;100.00
70370;BME280;57790;51.356;-2.906;2023-08-06T14:53:51;102040.19;;;20.84;100.00
70370;BME280;57790;51.356;-2.906;2023-08-06T14:56:52;102035.84;;;20.89;100.00
70370;BME280;57790;51.356;-2.906;2023-08-06T14:59:53;102034.41;;;20.93;100.00
70370;BME280;57790;51.356;-2.906;2023-08-06T15:02:54;102042.94;;;20.97;100.00
70370;BME280;57790;51.356;-2.906;2023-08-06T15:05:54;102043.41;;;21.00;100.00
70370;BME280;57790;51.356;-2.906;2023-08-06T15:08:55;102044.84;;;21.03;100.00
70370;BME280;57790;51.356;-2.906;2023-08-06T15:11:58;102049.63;;;21.07;100.00
70370;BME280;57790;51.356;-2.906;2023-08-06T15:14:59;102041.56;;;21.07;100.00
70370;BME280;57790;51.356;-2.906;2023-08-06T15:18:00;102047.56;;;21.09;100.00
70370;BME280;57790;51.356;-2.906;2023-08-06T15:21:01;102055.91;;;21.15;100.00
70370;BME280;57790;51.356;-2.906;2023-08-06T15:24:01;102047.41;;;21.18;100.00
70370;BME280;57790;51.356;-2.906;2023-08-06T15:27:04;102037.06;;;21.21;100.00
70370;BME280;57790;51.356;-2.906;2023-08-06T15:30:05;102034.34;;;21.21;100.00